Weather at Farnborough Airport

Public forecast

Using degrees Celsius for public forecast. Weather courtesy of forecast.io.

Current aviation weather report (METAR) for Farnborough Airport

2024/05/28 03:50 (retrieved 28 minutes ago)

EGLF 280350Z AUTO 16004KT 130V190 5000 BR BKN004/// OVC007/// 11/11 Q1014

Closest aviation forecast (TAF) to Farnborough Airport

Forecast is more than 6 hours old.

Closest forecast is RAF Northolt, 21.4 nm (39.6 km) NE.

2024/05/27 18:30 (retrieved 10 hours ago)

TAF EGWU 272026Z 2718/2812 CNL TAF EGWU 272025Z 2721/2815 CNL